Terminal Aerodrome Forecast
Issued by NWS

Home | Current Version | Previous Version | Text Only | Print | Product List | Glossary On
Versions: 1 2 3 4 5 6 7 8 9 10 11 12 13 14 15 16 17 18 19 20 21 22 23
506
FTAK31 PAJN 051720
TAFAJN
TAF
PAJN 051720Z 0518/0618 08007KT P6SM VCSH FEW005 BKN030 OVC040
     FM052100 10005KT P6SM BKN035 OVC050
     FM060300 08006KT 5SM -SHRASN BKN030 OVC060
     FM061200 09012KT P6SM VCSH BKN045 OVC070=

USA.gov is the U.S. government's official web portal to all federal, state and local government web resources and services.